sensor_id;sensor_type;location;lat;lon;timestamp;temperature;humidity
5466;DHT22;2755;50.728;7.108;2024-02-16T00:01:59;12.20;1.00
5466;DHT22;2755;50.728;7.108;2024-02-16T00:04:25;12.70;1.00
5466;DHT22;2755;50.728;7.108;2024-02-16T00:06:50;12.80;1.00
5466;DHT22;2755;50.728;7.108;2024-02-16T00:09:16;12.40;1.00
5466;DHT22;2755;50.728;7.108;2024-02-16T00:11:42;12.80;1.00
5466;DHT22;2755;50.728;7.108;2024-02-16T00:14:09;12.80;1.00
5466;DHT22;2755;50.728;7.108;2024-02-16T00:16:34;12.50;1.00
5466;DHT22;2755;50.728;7.108;2024-02-16T00:23:54;12.20;1.00
5466;DHT22;2755;50.728;7.108;2024-02-16T00:28:46;12.10;1.00
5466;DHT22;2755;50.728;7.108;2024-02-16T00:31:12;12.50;1.00
5466;DHT22;2755;50.728;7.108;2024-02-16T00:36:03;12.20;1.00
5466;DHT22;2755;50.728;7.108;2024-02-16T00:38:29;12.60;1.00
5466;DHT22;2755;50.728;7.108;2024-02-16T00:40:54;12.30;1.00
5466;DHT22;2755;50.728;7.108;2024-02-16T00:45:46;12.70;1.00
5466;DHT22;2755;50.728;7.108;2024-02-16T00:48:12;12.00;1.00
5466;DHT22;2755;50.728;7.108;2024-02-16T00:50:38;12.50;1.00
5466;DHT22;2755;50.728;7.108;2024-02-16T00:53:03;12.30;1.00
5466;DHT22;2755;50.728;7.108;2024-02-16T00:55:29;12.40;1.00
5466;DHT22;2755;50.728;7.108;2024-02-16T00:57:56;12.40;1.00
5466;DHT22;2755;50.728;7.108;2024-02-16T01:00:21;12.40;1.00
5466;DHT22;2755;50.728;7.108;2024-02-16T01:02:49;12.50;1.00
5466;DHT22;2755;50.728;7.108;2024-02-16T01:05:14;12.10;1.00
5466;DHT22;2755;50.728;7.108;2024-02-16T01:07:43;12.60;1.00
5466;DHT22;2755;50.728;7.108;2024-02-16T01:10:09;12.40;1.00
5466;DHT22;2755;50.728;7.108;2024-02-16T01:12:34;12.70;1.00
5466;DHT22;2755;50.728;7.108;2024-02-16T01:15:00;13.20;1.00
5466;DHT22;2755;50.728;7.108;2024-02-16T01:19:52;12.70;1.00
5466;DHT22;2755;50.728;7.108;2024-02-16T01:22:17;12.80;1.00
5466;DHT22;2755;50.728;7.108;2024-02-16T01:27:09;12.50;1.00
5466;DHT22;2755;50.728;7.108;2024-02-16T01:29:36;12.90;1.00
5466;DHT22;2755;50.728;7.108;2024-02-16T01:32:02;12.40;1.00
5466;DHT22;2755;50.728;7.108;2024-02-16T01:36:56;12.80;1.00
5466;DHT22;2755;50.728;7.108;2024-02-16T01:39:21;12.30;1.00
5466;DHT22;2755;50.728;7.108;2024-02-16T01:41:47;12.70;1.00
5466;DHT22;2755;50.728;7.108;2024-02-16T01:46:40;12.60;1.00
5466;DHT22;2755;50.728;7.108;2024-02-16T01:49:06;12.80;1.00
5466;DHT22;2755;50.728;7.108;2024-02-16T01:51:33;12.60;1.00
5466;DHT22;2755;50.728;7.108;2024-02-16T01:54:01;12.70;1.00
5466;DHT22;2755;50.728;7.108;2024-02-16T01:56:27;12.80;1.00
5466;DHT22;2755;50.728;7.108;2024-02-16T01:58:53;12.20;1.00
5466;DHT22;2755;50.728;7.108;2024-02-16T02:01:19;12.60;1.00
5466;DHT22;2755;50.728;7.108;2024-02-16T02:03:44;12.00;1.00
5466;DHT22;2755;50.728;7.108;2024-02-16T02:06:10;13.40;1.00
5466;DHT22;2755;50.728;7.108;2024-02-16T02:08:35;12.00;1.00
5466;DHT22;2755;50.728;7.108;2024-02-16T02:11:01;12.10;1.00
5466;DHT22;2755;50.728;7.108;2024-02-16T02:13:27;12.50;1.00
5466;DHT22;2755;50.728;7.108;2024-02-16T02:15:54;12.40;1.00
5466;DHT22;2755;50.728;7.108;2024-02-16T02:18:20;12.10;1.00
5466;DHT22;2755;50.728;7.108;2024-02-16T02:24:07;12.40;1.00
5466;DHT22;2755;50.728;7.108;2024-02-16T02:26:33;12.60;1.00
5466;DHT22;2755;50.728;7.108;2024-02-16T02:28:58;12.30;1.00
5466;DHT22;2755;50.728;7.108;2024-02-16T02:33:49;12.20;1.00
5466;DHT22;2755;50.728;7.108;2024-02-16T02:38:41;12.40;1.00
5466;DHT22;2755;50.728;7.108;2024-02-16T02:41:06;12.40;1.00
5466;DHT22;2755;50.728;7.108;2024-02-16T02:43:32;12.70;1.00
5466;DHT22;2755;50.728;7.108;2024-02-16T02:45:58;12.30;1.00
5466;DHT22;2755;50.728;7.108;2024-02-16T02:48:23;12.40;1.00
5466;DHT22;2755;50.728;7.108;2024-02-16T02:50:49;12.30;1.00
5466;DHT22;2755;50.728;7.108;2024-02-16T02:53:14;12.70;1.00
5466;DHT22;2755;50.728;7.108;2024-02-16T02:55:40;12.00;1.00
5466;DHT22;2755;50.728;7.108;2024-02-16T02:58:06;12.30;1.00
5466;DHT22;2755;50.728;7.108;2024-02-16T03:00:32;12.70;1.00
5466;DHT22;2755;50.728;7.108;2024-02-16T03:02:58;12.70;1.00
5466;DHT22;2755;50.728;7.108;2024-02-16T03:05:23;12.50;1.00
5466;DHT22;2755;50.728;7.108;2024-02-16T03:07:49;12.40;1.00
5466;DHT22;2755;50.728;7.108;2024-02-16T03:10:14;12.40;1.00
5466;DHT22;2755;50.728;7.108;2024-02-16T03:12:45;12.80;1.00
5466;DHT22;2755;50.728;7.108;2024-02-16T03:15:11;12.40;1.00
5466;DHT22;2755;50.728;7.108;2024-02-16T03:17:37;12.10;1.00
5466;DHT22;2755;50.728;7.108;2024-02-16T03:20:02;11.90;1.00
5466;DHT22;2755;50.728;7.108;2024-02-16T03:27:21;11.60;1.00
5466;DHT22;2755;50.728;7.108;2024-02-16T03:29:46;11.50;1.00
5466;DHT22;2755;50.728;7.108;2024-02-16T03:32:12;11.50;1.00
5466;DHT22;2755;50.728;7.108;2024-02-16T03:34:38;11.20;1.00
5466;DHT22;2755;50.728;7.108;2024-02-16T03:37:04;11.90;1.00
5466;DHT22;2755;50.728;7.108;2024-02-16T03:39:30;11.50;1.00
5466;DHT22;2755;50.728;7.108;2024-02-16T03:41:55;11.30;1.00
5466;DHT22;2755;50.728;7.108;2024-02-16T03:44:21;11.60;1.00
5466;DHT22;2755;50.728;7.108;2024-02-16T03:46:47;11.40;1.00
5466;DHT22;2755;50.728;7.108;2024-02-16T03:51:38;11.10;3.30
5466;DHT22;2755;50.728;7.108;2024-02-16T03:56:30;11.40;4.80
5466;DHT22;2755;50.728;7.108;2024-02-16T03:58:56;11.20;6.70
5466;DHT22;2755;50.728;7.108;2024-02-16T04:01:21;11.10;7.80
5466;DHT22;2755;50.728;7.108;2024-02-16T04:03:47;11.30;11.70
5466;DHT22;2755;50.728;7.108;2024-02-16T04:08:39;11.00;10.90
5466;DHT22;2755;50.728;7.108;2024-02-16T04:11:05;11.20;12.50
5466;DHT22;2755;50.728;7.108;2024-02-16T04:13:30;11.00;7.30
5466;DHT22;2755;50.728;7.108;2024-02-16T04:20:49;12.10;1.00
5466;DHT22;2755;50.728;7.108;2024-02-16T04:23:15;11.30;1.00
5466;DHT22;2755;50.728;7.108;2024-02-16T04:25:40;11.20;1.00
5466;DHT22;2755;50.728;7.108;2024-02-16T04:28:06;11.70;1.00
5466;DHT22;2755;50.728;7.108;2024-02-16T04:30:31;11.10;1.00
5466;DHT22;2755;50.728;7.108;2024-02-16T04:32:57;11.50;1.00
5466;DHT22;2755;50.728;7.108;2024-02-16T04:35:23;12.30;1.00
5466;DHT22;2755;50.728;7.108;2024-02-16T04:37:48;11.90;1.00
5466;DHT22;2755;50.728;7.108;2024-02-16T04:40:14;11.30;1.00
5466;DHT22;2755;50.728;7.108;2024-02-16T04:42:40;12.30;1.00
5466;DHT22;2755;50.728;7.108;2024-02-16T04:45:07;11.90;1.00
5466;DHT22;2755;50.728;7.108;2024-02-16T04:49:59;11.50;1.00
5466;DHT22;2755;50.728;7.108;2024-02-16T04:52:24;11.90;1.00
5466;DHT22;2755;50.728;7.108;2024-02-16T04:54:50;12.00;1.00
5466;DHT22;2755;50.728;7.108;2024-02-16T04:57:15;12.50;1.00
5466;DHT22;2755;50.728;7.108;2024-02-16T04:59:41;12.20;1.00
5466;DHT22;2755;50.728;7.108;2024-02-16T05:04:32;12.20;1.00
5466;DHT22;2755;50.728;7.108;2024-02-16T05:06:58;12.20;1.00
5466;DHT22;2755;50.728;7.108;2024-02-16T05:09:23;11.60;1.00
5466;DHT22;2755;50.728;7.108;2024-02-16T05:11:51;12.20;1.00
5466;DHT22;2755;50.728;7.108;2024-02-16T05:14:17;12.00;1.00
5466;DHT22;2755;50.728;7.108;2024-02-16T05:16:47;12.00;1.00
5466;DHT22;2755;50.728;7.108;2024-02-16T05:19:13;12.20;1.00
5466;DHT22;2755;50.728;7.108;2024-02-16T05:21:38;12.40;1.00
5466;DHT22;2755;50.728;7.108;2024-02-16T05:24:04;12.30;1.00
5466;DHT22;2755;50.728;7.108;2024-02-16T05:26:30;12.30;1.00
5466;DHT22;2755;50.728;7.108;2024-02-16T05:31:21;12.20;1.00
5466;DHT22;2755;50.728;7.108;2024-02-16T05:33:51;12.40;1.00
5466;DHT22;2755;50.728;7.108;2024-02-16T05:36:23;12.40;1.00
5466;DHT22;2755;50.728;7.108;2024-02-16T05:41:21;12.60;1.00
5466;DHT22;2755;50.728;7.108;2024-02-16T05:43:46;12.40;1.00
5466;DHT22;2755;50.728;7.108;2024-02-16T05:51:06;12.90;1.00
5466;DHT22;2755;50.728;7.108;2024-02-16T05:53:32;12.50;1.00
5466;DHT22;2755;50.728;7.108;2024-02-16T05:55:59;12.10;1.00
5466;DHT22;2755;50.728;7.108;2024-02-16T06:00:51;12.50;1.00
5466;DHT22;2755;50.728;7.108;2024-02-16T06:03:17;12.60;1.00
5466;DHT22;2755;50.728;7.108;2024-02-16T06:05:42;12.40;1.00
5466;DHT22;2755;50.728;7.108;2024-02-16T06:08:11;12.80;1.00
5466;DHT22;2755;50.728;7.108;2024-02-16T06:10:37;12.70;1.00
5466;DHT22;2755;50.728;7.108;2024-02-16T06:13:02;12.40;1.00
5466;DHT22;2755;50.728;7.108;2024-02-16T06:15:28;12.60;1.00
5466;DHT22;2755;50.728;7.108;2024-02-16T06:17:54;12.40;1.00
5466;DHT22;2755;50.728;7.108;2024-02-16T06:20:19;12.60;1.00
5466;DHT22;2755;50.728;7.108;2024-02-16T06:22:45;12.20;1.00
5466;DHT22;2755;50.728;7.108;2024-02-16T06:25:10;12.50;1.00
5466;DHT22;2755;50.728;7.108;2024-02-16T06:27:36;12.90;1.00
5466;DHT22;2755;50.728;7.108;2024-02-16T06:30:05;12.50;1.00
5466;DHT22;2755;50.728;7.108;2024-02-16T06:32:32;12.70;1.00
5466;DHT22;2755;50.728;7.108;2024-02-16T06:34:58;12.50;1.00
5466;DHT22;2755;50.728;7.108;2024-02-16T06:42:16;13.20;1.00
5466;DHT22;2755;50.728;7.108;2024-02-16T06:47:08;12.60;1.00
5466;DHT22;2755;50.728;7.108;2024-02-16T06:49:33;12.50;1.00
5466;DHT22;2755;50.728;7.108;2024-02-16T06:51:59;12.60;1.00
5466;DHT22;2755;50.728;7.108;2024-02-16T06:54:25;12.70;1.00
5466;DHT22;2755;50.728;7.108;2024-02-16T06:56:50;12.40;1.00
5466;DHT22;2755;50.728;7.108;2024-02-16T07:01:45;12.50;1.00
5466;DHT22;2755;50.728;7.108;2024-02-16T07:04:11;12.40;1.00
5466;DHT22;2755;50.728;7.108;2024-02-16T07:06:36;12.60;1.00
5466;DHT22;2755;50.728;7.108;2024-02-16T07:09:02;13.20;1.00
5466;DHT22;2755;50.728;7.108;2024-02-16T07:11:28;12.90;1.00
5466;DHT22;2755;50.728;7.108;2024-02-16T07:13:53;11.80;1.00
5466;DHT22;2755;50.728;7.108;2024-02-16T07:23:38;12.70;1.00
5466;DHT22;2755;50.728;7.108;2024-02-16T07:26:03;12.80;1.00
5466;DHT22;2755;50.728;7.108;2024-02-16T07:28:29;12.60;1.00
5466;DHT22;2755;50.728;7.108;2024-02-16T07:30:55;12.90;1.00
5466;DHT22;2755;50.728;7.108;2024-02-16T07:35:47;12.80;1.00
5466;DHT22;2755;50.728;7.108;2024-02-16T07:38:13;12.90;1.00
5466;DHT22;2755;50.728;7.108;2024-02-16T07:40:38;12.90;1.00
5466;DHT22;2755;50.728;7.108;2024-02-16T07:43:04;12.80;1.00
5466;DHT22;2755;50.728;7.108;2024-02-16T07:45:30;12.50;1.00
5466;DHT22;2755;50.728;7.108;2024-02-16T07:47:56;12.30;1.00
5466;DHT22;2755;50.728;7.108;2024-02-16T07:50:22;12.70;1.00
5466;DHT22;2755;50.728;7.108;2024-02-16T07:52:49;12.60;1.00
5466;DHT22;2755;50.728;7.108;2024-02-16T07:55:14;13.00;1.00
5466;DHT22;2755;50.728;7.108;2024-02-16T07:57:42;13.10;1.00
5466;DHT22;2755;50.728;7.108;2024-02-16T08:02:36;13.20;1.00
5466;DHT22;2755;50.728;7.108;2024-02-16T08:07:28;12.90;1.00
5466;DHT22;2755;50.728;7.108;2024-02-16T08:09:53;12.30;1.00
5466;DHT22;2755;50.728;7.108;2024-02-16T08:12:19;12.40;1.00
5466;DHT22;2755;50.728;7.108;2024-02-16T08:14:44;13.00;1.00
5466;DHT22;2755;50.728;7.108;2024-02-16T08:19:39;13.10;1.00
5466;DHT22;2755;50.728;7.108;2024-02-16T08:22:06;13.20;1.00
5466;DHT22;2755;50.728;7.108;2024-02-16T08:24:33;14.90;1.00
5466;DHT22;2755;50.728;7.108;2024-02-16T08:26:59;13.60;1.00
5466;DHT22;2755;50.728;7.108;2024-02-16T08:29:24;13.30;1.00
5466;DHT22;2755;50.728;7.108;2024-02-16T08:34:17;13.00;1.00
5466;DHT22;2755;50.728;7.108;2024-02-16T08:36:47;13.50;1.00
5466;DHT22;2755;50.728;7.108;2024-02-16T08:39:13;13.60;1.00
5466;DHT22;2755;50.728;7.108;2024-02-16T08:41:39;13.50;1.00
5466;DHT22;2755;50.728;7.108;2024-02-16T08:51:23;12.70;1.00
5466;DHT22;2755;50.728;7.108;2024-02-16T08:53:49;14.10;1.00
5466;DHT22;2755;50.728;7.108;2024-02-16T08:56:15;13.50;1.00
5466;DHT22;2755;50.728;7.108;2024-02-16T08:58:41;12.90;1.00
5466;DHT22;2755;50.728;7.108;2024-02-16T09:06:03;12.90;1.00
5466;DHT22;2755;50.728;7.108;2024-02-16T09:10:59;13.70;1.00
5466;DHT22;2755;50.728;7.108;2024-02-16T09:13:24;13.50;1.00
5466;DHT22;2755;50.728;7.108;2024-02-16T09:15:50;13.20;1.00
5466;DHT22;2755;50.728;7.108;2024-02-16T09:25:35;13.40;1.00
5466;DHT22;2755;50.728;7.108;2024-02-16T09:28:01;13.50;1.00
5466;DHT22;2755;50.728;7.108;2024-02-16T09:32:53;14.40;1.00
5466;DHT22;2755;50.728;7.108;2024-02-16T09:35:19;13.60;1.00
5466;DHT22;2755;50.728;7.108;2024-02-16T09:40:12;13.50;1.00
5466;DHT22;2755;50.728;7.108;2024-02-16T09:42:38;13.60;1.00
5466;DHT22;2755;50.728;7.108;2024-02-16T09:45:05;13.40;1.00
5466;DHT22;2755;50.728;7.108;2024-02-16T09:50:00;13.70;1.00
5466;DHT22;2755;50.728;7.108;2024-02-16T09:52:26;13.50;1.00
5466;DHT22;2755;50.728;7.108;2024-02-16T09:54:51;13.40;1.00
5466;DHT22;2755;50.728;7.108;2024-02-16T09:57:18;13.50;1.00
5466;DHT22;2755;50.728;7.108;2024-02-16T09:59:43;13.40;1.00
5466;DHT22;2755;50.728;7.108;2024-02-16T10:02:09;13.60;1.00
5466;DHT22;2755;50.728;7.108;2024-02-16T10:07:01;14.20;1.00
5466;DHT22;2755;50.728;7.108;2024-02-16T10:09:28;14.60;1.00
5466;DHT22;2755;50.728;7.108;2024-02-16T10:11:54;13.40;1.00
5466;DHT22;2755;50.728;7.108;2024-02-16T10:14:20;13.50;1.00
5466;DHT22;2755;50.728;7.108;2024-02-16T10:16:48;13.20;1.00
5466;DHT22;2755;50.728;7.108;2024-02-16T10:19:24;13.10;1.00
5466;DHT22;2755;50.728;7.108;2024-02-16T10:21:49;13.30;1.00
5466;DHT22;2755;50.728;7.108;2024-02-16T10:24:15;12.80;1.00
5466;DHT22;2755;50.728;7.108;2024-02-16T10:26:46;13.20;1.00
5466;DHT22;2755;50.728;7.108;2024-02-16T10:29:11;13.00;1.00
5466;DHT22;2755;50.728;7.108;2024-02-16T10:34:06;12.90;1.00
5466;DHT22;2755;50.728;7.108;2024-02-16T10:36:33;13.20;1.00
5466;DHT22;2755;50.728;7.108;2024-02-16T10:38:59;12.30;1.00
5466;DHT22;2755;50.728;7.108;2024-02-16T10:41:27;12.60;1.00
5466;DHT22;2755;50.728;7.108;2024-02-16T10:43:56;12.70;1.00
5466;DHT22;2755;50.728;7.108;2024-02-16T10:46:25;12.60;1.00
5466;DHT22;2755;50.728;7.108;2024-02-16T10:51:20;13.10;1.00
5466;DHT22;2755;50.728;7.108;2024-02-16T10:53:47;13.10;1.00
5466;DHT22;2755;50.728;7.108;2024-02-16T10:56:13;13.00;1.00
5466;DHT22;2755;50.728;7.108;2024-02-16T11:01:10;13.70;1.00
5466;DHT22;2755;50.728;7.108;2024-02-16T11:03:39;13.40;1.00
5466;DHT22;2755;50.728;7.108;2024-02-16T11:06:18;13.50;1.00
5466;DHT22;2755;50.728;7.108;2024-02-16T11:08:43;14.50;1.00
5466;DHT22;2755;50.728;7.108;2024-02-16T11:13:37;13.10;1.00
5466;DHT22;2755;50.728;7.108;2024-02-16T11:16:07;12.70;1.00
5466;DHT22;2755;50.728;7.108;2024-02-16T11:18:38;13.30;1.00
5466;DHT22;2755;50.728;7.108;2024-02-16T11:21:04;12.80;1.00
5466;DHT22;2755;50.728;7.108;2024-02-16T11:23:33;13.40;1.00
5466;DHT22;2755;50.728;7.108;2024-02-16T11:26:19;13.20;1.00
5466;DHT22;2755;50.728;7.108;2024-02-16T11:36:09;13.40;1.00
5466;DHT22;2755;50.728;7.108;2024-02-16T11:38:35;13.30;1.00
5466;DHT22;2755;50.728;7.108;2024-02-16T11:41:03;13.60;1.00
5466;DHT22;2755;50.728;7.108;2024-02-16T11:43:30;13.40;1.00
5466;DHT22;2755;50.728;7.108;2024-02-16T11:48:23;13.60;1.00
5466;DHT22;2755;50.728;7.108;2024-02-16T11:50:49;14.00;1.00
5466;DHT22;2755;50.728;7.108;2024-02-16T11:53:18;13.50;1.00
5466;DHT22;2755;50.728;7.108;2024-02-16T11:55:49;14.10;1.00
5466;DHT22;2755;50.728;7.108;2024-02-16T11:58:18;14.10;1.00
5466;DHT22;2755;50.728;7.108;2024-02-16T12:00:48;14.20;1.00
5466;DHT22;2755;50.728;7.108;2024-02-16T12:03:21;14.80;1.00
5466;DHT22;2755;50.728;7.108;2024-02-16T12:05:56;14.50;1.00
5466;DHT22;2755;50.728;7.108;2024-02-16T12:08:23;14.70;1.00
5466;DHT22;2755;50.728;7.108;2024-02-16T12:13:16;14.70;1.00
5466;DHT22;2755;50.728;7.108;2024-02-16T12:15:47;14.70;1.00
5466;DHT22;2755;50.728;7.108;2024-02-16T12:18:26;14.70;1.00
5466;DHT22;2755;50.728;7.108;2024-02-16T12:21:04;14.70;1.00
5466;DHT22;2755;50.728;7.108;2024-02-16T12:25:57;14.40;1.00
5466;DHT22;2755;50.728;7.108;2024-02-16T12:28:28;14.80;1.00
5466;DHT22;2755;50.728;7.108;2024-02-16T12:30:56;14.50;1.00
5466;DHT22;2755;50.728;7.108;2024-02-16T12:33:22;14.50;1.00
5466;DHT22;2755;50.728;7.108;2024-02-16T12:35:48;14.00;1.00
5466;DHT22;2755;50.728;7.108;2024-02-16T12:38:14;14.70;1.00
5466;DHT22;2755;50.728;7.108;2024-02-16T12:40:42;15.00;1.00
5466;DHT22;2755;50.728;7.108;2024-02-16T12:43:08;14.40;1.00
5466;DHT22;2755;50.728;7.108;2024-02-16T12:45:36;15.00;1.00
5466;DHT22;2755;50.728;7.108;2024-02-16T12:50:29;14.90;1.00
5466;DHT22;2755;50.728;7.108;2024-02-16T12:52:55;14.70;1.00
5466;DHT22;2755;50.728;7.108;2024-02-16T12:57:46;14.50;1.00
5466;DHT22;2755;50.728;7.108;2024-02-16T13:00:12;15.40;1.00
5466;DHT22;2755;50.728;7.108;2024-02-16T13:12:22;14.40;1.00
5466;DHT22;2755;50.728;7.108;2024-02-16T13:14:49;15.00;1.00
5466;DHT22;2755;50.728;7.108;2024-02-16T13:17:14;14.50;1.00
5466;DHT22;2755;50.728;7.108;2024-02-16T13:19:40;14.40;1.00
5466;DHT22;2755;50.728;7.108;2024-02-16T13:22:06;14.30;1.00
5466;DHT22;2755;50.728;7.108;2024-02-16T13:24:31;14.30;1.00
5466;DHT22;2755;50.728;7.108;2024-02-16T13:26:59;13.90;1.00
5466;DHT22;2755;50.728;7.108;2024-02-16T13:29:24;13.90;1.00
5466;DHT22;2755;50.728;7.108;2024-02-16T13:31:50;13.60;1.00
5466;DHT22;2755;50.728;7.108;2024-02-16T13:34:15;13.80;1.00
5466;DHT22;2755;50.728;7.108;2024-02-16T13:39:07;13.00;1.00
5466;DHT22;2755;50.728;7.108;2024-02-16T13:43:59;12.80;1.00
5466;DHT22;2755;50.728;7.108;2024-02-16T13:46:25;13.00;1.00
5466;DHT22;2755;50.728;7.108;2024-02-16T13:48:50;12.90;4.60
5466;DHT22;2755;50.728;7.108;2024-02-16T13:51:16;13.10;10.20
5466;DHT22;2755;50.728;7.108;2024-02-16T13:53:41;12.50;11.20
5466;DHT22;2755;50.728;7.108;2024-02-16T13:56:07;13.90;15.00
5466;DHT22;2755;50.728;7.108;2024-02-16T13:58:34;13.00;19.30
5466;DHT22;2755;50.728;7.108;2024-02-16T14:01:01;12.90;16.20
5466;DHT22;2755;50.728;7.108;2024-02-16T14:03:28;12.70;19.20
5466;DHT22;2755;50.728;7.108;2024-02-16T14:05:54;12.70;22.80
5466;DHT22;2755;50.728;7.108;2024-02-16T14:10:46;12.80;35.80
5466;DHT22;2755;50.728;7.108;2024-02-16T14:13:11;12.80;38.60
5466;DHT22;2755;50.728;7.108;2024-02-16T14:18:03;12.80;42.30
5466;DHT22;2755;50.728;7.108;2024-02-16T14:20:29;13.20;45.70
5466;DHT22;2755;50.728;7.108;2024-02-16T14:25:20;13.10;47.00
5466;DHT22;2755;50.728;7.108;2024-02-16T14:27:46;13.70;49.90
5466;DHT22;2755;50.728;7.108;2024-02-16T14:30:12;13.20;47.00
5466;DHT22;2755;50.728;7.108;2024-02-16T14:35:04;13.20;51.20
5466;DHT22;2755;50.728;7.108;2024-02-16T14:39:59;13.20;54.30
5466;DHT22;2755;50.728;7.108;2024-02-16T14:42:26;13.00;56.90
5466;DHT22;2755;50.728;7.108;2024-02-16T14:47:18;12.80;53.60
5466;DHT22;2755;50.728;7.108;2024-02-16T14:49:44;13.10;57.90
5466;DHT22;2755;50.728;7.108;2024-02-16T14:52:09;12.80;57.50
5466;DHT22;2755;50.728;7.108;2024-02-16T14:54:35;13.00;59.10
5466;DHT22;2755;50.728;7.108;2024-02-16T14:57:01;13.10;58.70
5466;DHT22;2755;50.728;7.108;2024-02-16T14:59:27;13.10;61.60
5466;DHT22;2755;50.728;7.108;2024-02-16T15:09:13;13.20;60.30
5466;DHT22;2755;50.728;7.108;2024-02-16T15:11:38;12.70;64.10
5466;DHT22;2755;50.728;7.108;2024-02-16T15:14:04;13.20;63.70
5466;DHT22;2755;50.728;7.108;2024-02-16T15:18:56;12.70;65.00
5466;DHT22;2755;50.728;7.108;2024-02-16T15:23:48;13.20;66.70
5466;DHT22;2755;50.728;7.108;2024-02-16T15:33:32;13.20;70.90
5466;DHT22;2755;50.728;7.108;2024-02-16T15:35:58;12.80;68.00
5466;DHT22;2755;50.728;7.108;2024-02-16T15:38:26;13.00;65.50
5466;DHT22;2755;50.728;7.108;2024-02-16T15:40:52;13.30;70.40
5466;DHT22;2755;50.728;7.108;2024-02-16T15:43:17;13.20;71.00
5466;DHT22;2755;50.728;7.108;2024-02-16T15:45:44;13.60;69.40
5466;DHT22;2755;50.728;7.108;2024-02-16T15:48:12;12.70;69.30
5466;DHT22;2755;50.728;7.108;2024-02-16T15:50:40;13.90;70.80
5466;DHT22;2755;50.728;7.108;2024-02-16T15:57:58;13.00;70.60
5466;DHT22;2755;50.728;7.108;2024-02-16T16:00:24;13.60;74.80
5466;DHT22;2755;50.728;7.108;2024-02-16T16:02:50;12.70;71.70
5466;DHT22;2755;50.728;7.108;2024-02-16T16:07:42;12.90;71.30
5466;DHT22;2755;50.728;7.108;2024-02-16T16:10:08;12.90;71.40
5466;DHT22;2755;50.728;7.108;2024-02-16T16:15:00;13.00;73.30
5466;DHT22;2755;50.728;7.108;2024-02-16T16:19:52;13.00;71.50
5466;DHT22;2755;50.728;7.108;2024-02-16T16:22:17;12.80;74.50
5466;DHT22;2755;50.728;7.108;2024-02-16T16:27:09;12.50;78.40
5466;DHT22;2755;50.728;7.108;2024-02-16T16:29:34;12.50;76.50
5466;DHT22;2755;50.728;7.108;2024-02-16T16:32:01;12.80;82.80
5466;DHT22;2755;50.728;7.108;2024-02-16T16:34:29;12.90;84.50
5466;DHT22;2755;50.728;7.108;2024-02-16T16:36:58;12.50;86.40
5466;DHT22;2755;50.728;7.108;2024-02-16T16:41:50;12.90;89.70
5466;DHT22;2755;50.728;7.108;2024-02-16T16:44:16;12.30;92.80
5466;DHT22;2755;50.728;7.108;2024-02-16T16:51:36;13.10;93.90
5466;DHT22;2755;50.728;7.108;2024-02-16T16:54:01;12.90;96.20
5466;DHT22;2755;50.728;7.108;2024-02-16T16:56:27;12.60;95.30
5466;DHT22;2755;50.728;7.108;2024-02-16T16:58:52;12.80;97.20
5466;DHT22;2755;50.728;7.108;2024-02-16T17:03:45;13.40;97.80
5466;DHT22;2755;50.728;7.108;2024-02-16T17:06:10;12.60;99.50
5466;DHT22;2755;50.728;7.108;2024-02-16T17:08:36;13.40;98.80
5466;DHT22;2755;50.728;7.108;2024-02-16T17:11:03;12.90;97.90
5466;DHT22;2755;50.728;7.108;2024-02-16T17:13:28;12.80;99.30
5466;DHT22;2755;50.728;7.108;2024-02-16T17:15:54;12.70;99.90
5466;DHT22;2755;50.728;7.108;2024-02-16T17:18:20;12.60;99.90
5466;DHT22;2755;50.728;7.108;2024-02-16T17:20:46;12.50;99.90
5466;DHT22;2755;50.728;7.108;2024-02-16T17:23:13;13.10;99.90
5466;DHT22;2755;50.728;7.108;2024-02-16T17:28:04;12.30;99.90
5466;DHT22;2755;50.728;7.108;2024-02-16T17:30:32;12.80;99.90
5466;DHT22;2755;50.728;7.108;2024-02-16T17:37:51;12.50;99.90
5466;DHT22;2755;50.728;7.108;2024-02-16T17:40:18;12.50;99.90
5466;DHT22;2755;50.728;7.108;2024-02-16T17:45:13;12.20;99.90
5466;DHT22;2755;50.728;7.108;2024-02-16T17:47:39;12.50;99.90
5466;DHT22;2755;50.728;7.108;2024-02-16T17:50:05;12.20;99.90
5466;DHT22;2755;50.728;7.108;2024-02-16T17:52:31;12.40;99.90
5466;DHT22;2755;50.728;7.108;2024-02-16T17:54:58;12.00;99.90
5466;DHT22;2755;50.728;7.108;2024-02-16T17:57:25;11.90;99.90
5466;DHT22;2755;50.728;7.108;2024-02-16T17:59:51;12.30;99.90
5466;DHT22;2755;50.728;7.108;2024-02-16T18:07:10;11.80;99.90
5466;DHT22;2755;50.728;7.108;2024-02-16T18:09:42;12.00;99.90
5466;DHT22;2755;50.728;7.108;2024-02-16T18:12:08;12.10;99.90
5466;DHT22;2755;50.728;7.108;2024-02-16T18:14:34;11.90;99.90
5466;DHT22;2755;50.728;7.108;2024-02-16T18:19:42;11.60;99.90
5466;DHT22;2755;50.728;7.108;2024-02-16T18:22:08;12.20;99.90
5466;DHT22;2755;50.728;7.108;2024-02-16T18:24:36;11.00;99.90
5466;DHT22;2755;50.728;7.108;2024-02-16T18:27:03;11.50;99.90
5466;DHT22;2755;50.728;7.108;2024-02-16T18:31:55;11.10;99.90
5466;DHT22;2755;50.728;7.108;2024-02-16T18:34:22;11.60;99.90
5466;DHT22;2755;50.728;7.108;2024-02-16T18:36:48;11.80;99.90
5466;DHT22;2755;50.728;7.108;2024-02-16T18:41:43;11.90;99.90
5466;DHT22;2755;50.728;7.108;2024-02-16T18:46:34;11.60;99.90
5466;DHT22;2755;50.728;7.108;2024-02-16T18:49:01;11.60;99.90
5466;DHT22;2755;50.728;7.108;2024-02-16T18:51:26;11.80;99.90
5466;DHT22;2755;50.728;7.108;2024-02-16T18:53:53;11.50;99.90
5466;DHT22;2755;50.728;7.108;2024-02-16T18:56:18;11.60;99.90
5466;DHT22;2755;50.728;7.108;2024-02-16T18:58:44;11.90;99.90
5466;DHT22;2755;50.728;7.108;2024-02-16T19:01:10;11.20;99.90
5466;DHT22;2755;50.728;7.108;2024-02-16T19:03:36;11.30;99.90
5466;DHT22;2755;50.728;7.108;2024-02-16T19:06:02;11.40;99.90
5466;DHT22;2755;50.728;7.108;2024-02-16T19:08:27;10.80;99.90
5466;DHT22;2755;50.728;7.108;2024-02-16T19:10:53;11.40;99.90
5466;DHT22;2755;50.728;7.108;2024-02-16T19:13:20;11.50;99.90
5466;DHT22;2755;50.728;7.108;2024-02-16T19:18:12;11.30;99.90
5466;DHT22;2755;50.728;7.108;2024-02-16T19:20:37;11.60;99.90
5466;DHT22;2755;50.728;7.108;2024-02-16T19:23:03;11.10;99.90
5466;DHT22;2755;50.728;7.108;2024-02-16T19:30:21;11.20;99.90
5466;DHT22;2755;50.728;7.108;2024-02-16T19:32:47;11.20;99.90
5466;DHT22;2755;50.728;7.108;2024-02-16T19:37:40;11.20;99.90
5466;DHT22;2755;50.728;7.108;2024-02-16T19:40:06;11.50;99.90
5466;DHT22;2755;50.728;7.108;2024-02-16T19:44:59;10.60;99.90
5466;DHT22;2755;50.728;7.108;2024-02-16T19:47:24;11.20;99.90
5466;DHT22;2755;50.728;7.108;2024-02-16T19:49:50;11.10;99.90
5466;DHT22;2755;50.728;7.108;2024-02-16T19:52:15;10.50;99.90
5466;DHT22;2755;50.728;7.108;2024-02-16T19:54:46;11.10;99.90
5466;DHT22;2755;50.728;7.108;2024-02-16T20:04:30;11.20;99.90
5466;DHT22;2755;50.728;7.108;2024-02-16T20:06:58;11.40;99.90
5466;DHT22;2755;50.728;7.108;2024-02-16T20:09:23;10.70;99.90
5466;DHT22;2755;50.728;7.108;2024-02-16T20:14:15;9.10;99.90
5466;DHT22;2755;50.728;7.108;2024-02-16T20:16:41;11.10;99.90
5466;DHT22;2755;50.728;7.108;2024-02-16T20:21:38;11.20;99.90
5466;DHT22;2755;50.728;7.108;2024-02-16T20:24:04;10.70;99.90
5466;DHT22;2755;50.728;7.108;2024-02-16T20:26:30;10.70;99.90
5466;DHT22;2755;50.728;7.108;2024-02-16T20:31:30;10.70;99.90
5466;DHT22;2755;50.728;7.108;2024-02-16T20:38:48;11.50;99.90
5466;DHT22;2755;50.728;7.108;2024-02-16T20:41:15;11.10;99.90
5466;DHT22;2755;50.728;7.108;2024-02-16T20:43:40;11.00;99.90
5466;DHT22;2755;50.728;7.108;2024-02-16T20:46:06;11.10;99.90
5466;DHT22;2755;50.728;7.108;2024-02-16T20:53:25;10.90;99.20
5466;DHT22;2755;50.728;7.108;2024-02-16T20:55:51;11.00;99.90